Time;durP1;ratioP1;P1;durP2;ratioP2;P2;SDS_P1;SDS_P2;PMS_P1;PMS_P2;Temp;Humidity;BMP_temperature;BMP_pressure;BME280_temperature;BME280_humidity;BME280_pressure;Samples;Min_cycle;Max_cycle;Signal;HPM_P1;HPM_P2
2022/03/18 00:00:51;;;;;;;16.75;4.20;;;6.30;99.90;;;;;;5019972;28;20308;-63
2022/03/18 00:03:16;;;;;;;12.75;4.38;;;6.30;99.90;;;;;;5025517;28;20033;-63
2022/03/18 00:05:42;;;;;;;11.27;4.18;;;6.40;99.90;;;;;;5029414;28;20034;-63
2022/03/18 00:08:10;;;;;;;12.75;4.13;;;6.40;99.90;;;;;;5028488;28;20033;-63
2022/03/18 00:10:35;;;;;;;14.18;5.20;;;6.30;99.90;;;;;;5016437;28;20474;-64
2022/03/18 00:13:02;;;;;;;14.30;4.68;;;6.40;99.90;;;;;;5018007;28;20113;-64
2022/03/18 00:15:27;;;;;;;12.88;4.20;;;6.40;99.90;;;;;;5016520;28;20417;-64
2022/03/18 00:17:54;;;;;;;13.18;4.30;;;6.40;99.90;;;;;;5011923;28;20022;-64
2022/03/18 00:20:21;;;;;;;11.25;4.25;;;6.40;99.90;;;;;;5011315;28;20450;-64
2022/03/18 00:22:48;;;;;;;14.52;4.65;;;6.30;99.90;;;;;;4996646;28;20474;-64
2022/03/18 00:25:15;;;;;;;14.80;4.28;;;6.30;99.90;;;;;;5012880;28;20551;-64
2022/03/18 00:27:42;;;;;;;11.23;4.65;;;6.40;99.90;;;;;;5014238;28;20048;-64
2022/03/18 00:30:09;;;;;;;17.33;4.70;;;6.30;99.90;;;;;;5015333;28;20033;-64
2022/03/18 00:32:41;;;;;;;14.15;4.15;;;6.40;99.90;;;;;;5014392;28;20022;-64
2022/03/18 00:35:08;;;;;;;16.73;4.63;;;6.40;99.90;;;;;;5015343;28;20037;-64
2022/03/18 00:37:38;;;;;;;17.38;4.60;;;6.40;99.90;;;;;;5016240;28;20065;-64
2022/03/18 00:40:05;;;;;;;12.32;4.70;;;6.30;99.90;;;;;;5014202;28;20070;-64
2022/03/18 00:42:33;;;;;;;11.20;4.53;;;6.30;99.90;;;;;;5015808;28;20041;-63
2022/03/18 00:45:00;;;;;;;13.93;4.82;;;6.30;99.90;;;;;;5014764;28;20041;-63
2022/03/18 00:52:54;;;;;;;14.30;4.57;;;6.20;99.90;;;;;;5015817;28;20405;-63
2022/03/18 00:55:20;;;;;;;14.02;4.93;;;6.20;99.90;;;;;;5015577;28;20038;-63
2022/03/18 00:57:46;;;;;;;14.90;4.68;;;6.20;99.90;;;;;;5015650;28;20022;-63
2022/03/18 01:00:12;;;;;;;12.27;4.30;;;6.10;99.90;;;;;;5016005;28;20026;-62
2022/03/18 01:02:37;;;;;;;15.70;5.05;;;6.10;99.90;;;;;;5015283;28;20026;-62
2022/03/18 01:05:03;;;;;;;17.73;5.03;;;6.10;99.90;;;;;;5021056;28;20022;-64
2022/03/18 01:07:29;;;;;;;13.23;4.10;;;6.20;99.90;;;;;;5018525;28;20038;-62
2022/03/18 01:09:55;;;;;;;12.65;4.03;;;6.20;99.90;;;;;;5021040;28;20112;-64
2022/03/18 01:12:22;;;;;;;13.45;4.20;;;6.20;99.90;;;;;;5022517;28;20114;-64
2022/03/18 01:14:48;;;;;;;10.27;3.90;;;6.10;99.90;;;;;;5020550;28;20026;-65
2022/03/18 01:17:13;;;;;;;16.25;4.10;;;6.20;99.90;;;;;;5017191;28;20041;-63
2022/03/18 01:19:40;;;;;;;10.65;3.92;;;6.20;99.90;;;;;;5015171;28;20030;-65
2022/03/18 01:22:07;;;;;;;14.52;4.07;;;6.10;99.90;;;;;;5022787;28;20402;-64
2022/03/18 01:24:33;;;;;;;17.40;4.55;;;6.20;99.90;;;;;;5020701;28;20471;-63
2022/03/18 01:26:59;;;;;;;13.40;4.32;;;6.20;99.90;;;;;;5031839;28;20121;-65
2022/03/18 01:29:24;;;;;;;17.17;4.50;;;6.20;99.90;;;;;;5003057;28;20108;-64
2022/03/18 01:31:50;;;;;;;16.60;4.57;;;6.10;99.90;;;;;;5014296;28;20053;-66
2022/03/18 01:34:15;;;;;;;16.65;4.55;;;6.10;99.90;;;;;;5014359;28;20044;-63
2022/03/18 01:36:41;;;;;;;16.67;4.70;;;6.10;99.90;;;;;;5014387;28;20033;-65
2022/03/18 01:39:06;;;;;;;16.33;5.00;;;6.00;99.90;;;;;;5014865;28;20088;-67
2022/03/18 01:41:33;;;;;;;14.57;4.53;;;6.00;99.90;;;;;;5014561;28;20084;-65
2022/03/18 01:43:58;;;;;;;18.33;5.60;;;5.90;99.90;;;;;;5014847;28;20013;-67
2022/03/18 01:46:24;;;;;;;14.93;4.40;;;5.80;99.90;;;;;;5014741;28;20382;-65
2022/03/18 01:48:50;;;;;;;15.00;4.60;;;5.90;99.90;;;;;;5014284;28;20641;-66
2022/03/18 01:51:16;;;;;;;14.93;4.78;;;5.80;99.90;;;;;;5015074;28;20393;-63
2022/03/18 01:53:43;;;;;;;17.40;4.65;;;5.80;99.90;;;;;;5015021;28;20045;-67
2022/03/18 01:56:09;;;;;;;12.55;4.75;;;5.80;99.90;;;;;;5014163;28;20466;-64
2022/03/18 01:58:36;;;;;;;18.75;5.20;;;5.70;99.90;;;;;;5015865;28;20449;-67
2022/03/18 02:01:02;;;;;;;16.88;4.97;;;5.70;99.90;;;;;;5024528;28;20038;-67
2022/03/18 02:03:28;;;;;;;13.40;4.53;;;5.70;99.90;;;;;;5014183;28;20033;-64
2022/03/18 02:05:54;;;;;;;16.65;4.60;;;5.60;99.90;;;;;;5014522;28;20434;-64
2022/03/18 02:08:21;;;;;;;11.95;5.07;;;5.60;99.90;;;;;;5014257;28;20033;-64
2022/03/18 02:10:46;;;;;;;16.33;4.63;;;5.60;99.90;;;;;;5014264;28;20050;-64
2022/03/18 02:13:12;;;;;;;16.05;5.50;;;5.60;99.90;;;;;;5014462;28;20025;-64
2022/03/18 02:15:38;;;;;;;13.43;4.75;;;5.50;99.90;;;;;;5011809;28;20026;-64
2022/03/18 02:18:05;;;;;;;10.48;4.60;;;5.50;99.90;;;;;;5013334;28;20036;-64
2022/03/18 02:20:32;;;;;;;12.43;4.80;;;5.50;99.90;;;;;;5012484;28;20029;-64
2022/03/18 02:22:58;;;;;;;10.30;4.10;;;5.50;99.90;;;;;;5012913;28;20044;-63
2022/03/18 02:25:24;;;;;;;16.30;4.40;;;5.50;99.90;;;;;;5013735;28;20396;-64
2022/03/18 02:27:55;;;;;;;12.82;4.53;;;5.50;99.90;;;;;;5012827;28;20037;-63
2022/03/18 02:30:21;;;;;;;11.97;4.23;;;5.40;99.90;;;;;;5013230;28;20081;-64
2022/03/18 02:32:46;;;;;;;12.43;4.00;;;5.40;99.90;;;;;;5013473;28;20264;-63
2022/03/18 02:35:12;;;;;;;11.65;4.03;;;5.40;99.90;;;;;;5013570;28;20042;-63
2022/03/18 02:37:38;;;;;;;8.93;3.67;;;5.40;99.90;;;;;;5013175;28;20038;-63
2022/03/18 02:40:04;;;;;;;10.00;3.50;;;5.40;99.90;;;;;;5012165;28;20056;-63
2022/03/18 02:42:29;;;;;;;12.30;3.60;;;5.40;99.90;;;;;;5013458;28;20120;-63
2022/03/18 02:44:55;;;;;;;9.80;3.22;;;5.40;99.90;;;;;;5012576;28;20026;-63
2022/03/18 02:47:21;;;;;;;10.65;3.00;;;5.40;99.90;;;;;;5013643;28;20041;-64
2022/03/18 02:49:46;;;;;;;12.63;3.50;;;5.40;99.90;;;;;;5012611;28;20038;-64
2022/03/18 02:52:14;;;;;;;12.02;3.10;;;5.40;99.90;;;;;;5011427;28;20033;-63
2022/03/18 02:54:39;;;;;;;15.63;3.35;;;5.40;99.90;;;;;;5012882;28;20022;-64
2022/03/18 02:57:05;;;;;;;10.55;2.90;;;5.40;99.90;;;;;;5013717;28;20458;-64
2022/03/18 02:59:32;;;;;;;9.20;2.78;;;5.50;99.90;;;;;;5011944;28;20034;-64
2022/03/18 03:01:58;;;;;;;6.78;3.03;;;5.50;99.90;;;;;;5012835;28;20026;-63
2022/03/18 03:04:23;;;;;;;11.38;3.03;;;5.50;99.90;;;;;;5011806;28;20394;-64
2022/03/18 03:09:33;;;;;;;11.73;3.40;;;5.50;99.90;;;;;;5013086;28;20054;-64
2022/03/18 03:11:59;;;;;;;8.25;2.50;;;5.60;99.90;;;;;;5013136;28;20046;-64
2022/03/18 03:14:24;;;;;;;8.50;2.78;;;5.70;99.90;;;;;;5012949;28;20033;-64
2022/03/18 03:16:50;;;;;;;8.98;3.38;;;5.70;99.90;;;;;;5012640;28;20036;-64
2022/03/18 03:19:15;;;;;;;7.22;2.75;;;5.70;99.90;;;;;;5012405;28;20057;-63
2022/03/18 03:21:41;;;;;;;9.57;3.30;;;5.80;99.90;;;;;;5012085;28;20029;-63
2022/03/18 03:24:08;;;;;;;13.32;3.20;;;5.80;99.90;;;;;;5011341;28;20096;-63
2022/03/18 03:26:34;;;;;;;13.60;2.60;;;5.80;99.90;;;;;;5012359;28;20067;-63
2022/03/18 03:29:00;;;;;;;11.65;3.05;;;5.80;99.90;;;;;;5011162;28;20033;-63
2022/03/18 03:31:26;;;;;;;10.00;2.40;;;5.80;99.90;;;;;;5012725;28;20034;-63
2022/03/18 03:33:51;;;;;;;8.05;2.40;;;5.90;99.90;;;;;;5012630;28;20041;-63
2022/03/18 03:36:17;;;;;;;13.50;3.05;;;5.90;99.90;;;;;;5012619;28;20461;-64
2022/03/18 03:38:43;;;;;;;11.55;2.83;;;6.00;99.90;;;;;;5012968;28;20022;-63
2022/03/18 03:41:09;;;;;;;10.57;2.90;;;6.10;99.90;;;;;;5012561;28;20473;-64
2022/03/18 03:43:34;;;;;;;10.48;3.30;;;6.10;99.90;;;;;;5012915;28;20041;-63
2022/03/18 03:46:00;;;;;;;8.43;2.92;;;6.10;99.90;;;;;;5012784;28;20485;-63
2022/03/18 03:48:32;;;;;;;7.57;2.80;;;6.10;99.90;;;;;;5011058;28;20034;-64
2022/03/18 03:50:57;;;;;;;7.93;3.00;;;6.00;99.90;;;;;;5011997;28;20061;-63
2022/03/18 03:53:23;;;;;;;9.63;3.08;;;6.00;99.90;;;;;;5010447;28;20482;-63
2022/03/18 03:55:48;;;;;;;8.95;3.15;;;6.00;99.90;;;;;;5012397;28;20044;-63
2022/03/18 03:58:14;;;;;;;12.77;2.97;;;5.90;99.90;;;;;;5012964;28;20032;-64
2022/03/18 04:00:40;;;;;;;11.43;3.50;;;5.90;99.90;;;;;;5011387;28;20104;-63
2022/03/18 04:03:06;;;;;;;9.35;3.17;;;5.80;99.90;;;;;;5012636;28;20058;-63
2022/03/18 04:05:33;;;;;;;10.38;3.20;;;5.80;99.90;;;;;;5012288;28;20068;-64
2022/03/18 04:07:59;;;;;;;12.57;3.78;;;5.80;99.90;;;;;;5012483;28;20030;-62
2022/03/18 04:10:25;;;;;;;11.80;3.47;;;5.80;99.90;;;;;;5012574;28;20050;-63
2022/03/18 04:12:51;;;;;;;11.27;3.20;;;5.80;99.90;;;;;;5012731;28;20118;-63
2022/03/18 04:15:16;;;;;;;10.68;3.50;;;5.80;99.90;;;;;;5012807;28;20062;-63
2022/03/18 04:17:44;;;;;;;7.78;3.70;;;5.80;99.90;;;;;;5010872;28;20025;-63
2022/03/18 04:20:12;;;;;;;8.63;3.17;;;5.80;99.90;;;;;;5002370;28;20034;-63
2022/03/18 04:22:39;;;;;;;11.02;3.30;;;5.80;99.90;;;;;;5010072;28;20034;-63
2022/03/18 04:25:05;;;;;;;13.68;4.25;;;5.80;99.90;;;;;;5012321;28;20125;-62
2022/03/18 04:27:32;;;;;;;14.48;3.45;;;5.80;99.90;;;;;;5010612;28;20042;-62
2022/03/18 04:29:57;;;;;;;13.20;4.22;;;5.80;99.90;;;;;;5012038;28;20046;-62
2022/03/18 04:32:23;;;;;;;18.80;4.22;;;5.80;99.90;;;;;;5003623;28;20032;-63
2022/03/18 04:34:48;;;;;;;15.35;3.53;;;5.90;99.90;;;;;;5012134;28;20497;-63
2022/03/18 04:37:14;;;;;;;18.58;4.70;;;5.90;99.90;;;;;;5009640;28;20045;-63
2022/03/18 04:39:39;;;;;;;10.98;3.80;;;5.90;99.90;;;;;;5015214;28;20030;-63
2022/03/18 04:42:05;;;;;;;15.23;4.13;;;5.90;99.90;;;;;;4997860;28;20047;-63
2022/03/18 04:44:31;;;;;;;15.00;5.20;;;5.90;99.90;;;;;;5002420;28;20100;-63
2022/03/18 04:46:56;;;;;;;18.48;4.15;;;5.80;99.90;;;;;;5015729;28;20041;-63
2022/03/18 04:49:22;;;;;;;12.52;4.00;;;5.80;99.90;;;;;;4996065;28;20042;-63
2022/03/18 04:51:47;;;;;;;13.68;4.63;;;5.80;99.90;;;;;;5011993;28;20037;-63
2022/03/18 04:54:13;;;;;;;17.08;4.80;;;5.80;99.90;;;;;;5015738;28;20034;-63
2022/03/18 04:59:23;;;;;;;15.50;4.30;;;5.70;99.90;;;;;;5007323;28;20065;-64
2022/03/18 05:01:48;;;;;;;13.82;4.07;;;5.70;99.90;;;;;;5030636;28;20474;-64
2022/03/18 05:04:14;;;;;;;16.90;4.40;;;5.70;99.90;;;;;;5006941;28;20057;-64
2022/03/18 05:06:40;;;;;;;22.30;4.20;;;5.70;99.90;;;;;;4996247;28;20027;-63
2022/03/18 05:09:06;;;;;;;14.70;4.65;;;5.70;99.90;;;;;;5002948;28;20498;-64
2022/03/18 05:11:32;;;;;;;14.65;4.97;;;5.60;99.90;;;;;;5004289;28;20034;-64
2022/03/18 05:13:58;;;;;;;20.17;5.18;;;5.70;99.90;;;;;;5015452;28;20034;-63
2022/03/18 05:16:25;;;;;;;16.45;5.10;;;5.70;99.90;;;;;;5003294;28;20088;-64
2022/03/18 05:18:51;;;;;;;16.90;5.03;;;5.60;99.90;;;;;;4994937;28;20434;-63
2022/03/18 05:21:17;;;;;;;16.45;5.60;;;5.60;99.90;;;;;;5005635;28;20539;-64
2022/03/18 05:23:42;;;;;;;19.08;5.05;;;5.50;99.90;;;;;;5004706;28;20065;-64
2022/03/18 05:26:08;;;;;;;17.58;5.80;;;5.50;99.90;;;;;;4998383;28;20395;-63
2022/03/18 05:28:33;;;;;;;13.07;4.30;;;5.40;99.90;;;;;;5011538;28;20097;-63
2022/03/18 05:30:59;;;;;;;14.38;4.55;;;5.40;99.90;;;;;;4998517;28;20060;-63
2022/03/18 05:33:25;;;;;;;17.33;5.82;;;5.30;99.90;;;;;;5010379;28;20410;-63
2022/03/18 05:35:51;;;;;;;14.10;4.50;;;5.30;99.90;;;;;;5005134;28;20038;-64
2022/03/18 05:38:16;;;;;;;11.07;4.80;;;5.20;99.90;;;;;;5002220;28;20026;-63
2022/03/18 05:40:42;;;;;;;22.42;11.88;;;5.20;99.90;;;;;;5011751;28;20150;-64
2022/03/18 05:43:08;;;;;;;13.35;4.60;;;5.20;99.90;;;;;;5012815;28;20362;-64
2022/03/18 05:45:34;;;;;;;22.05;6.30;;;5.20;99.90;;;;;;5013725;28;20030;-64
2022/03/18 05:48:00;;;;;;;24.65;10.40;;;5.10;99.90;;;;;;5012987;28;20080;-63
2022/03/18 05:50:26;;;;;;;23.30;8.77;;;5.10;99.90;;;;;;5012842;28;20037;-64
2022/03/18 05:52:52;;;;;;;21.00;6.28;;;5.10;99.90;;;;;;5013569;28;20065;-64
2022/03/18 05:55:18;;;;;;;13.10;5.60;;;5.10;99.90;;;;;;5010184;28;20037;-64
2022/03/18 05:57:43;;;;;;;21.58;6.93;;;5.20;99.90;;;;;;5008720;28;20080;-64
2022/03/18 06:00:10;;;;;;;18.25;5.72;;;5.10;99.90;;;;;;5014720;28;20076;-64
2022/03/18 06:02:36;;;;;;;21.90;8.35;;;5.20;99.90;;;;;;5012749;28;20126;-64
2022/03/18 06:05:02;;;;;;;26.55;10.02;;;5.20;99.90;;;;;;5009227;28;20157;-64
2022/03/18 06:07:28;;;;;;;20.13;6.05;;;5.20;99.90;;;;;;5006045;28;20037;-64
2022/03/18 06:12:38;;;;;;;16.73;5.60;;;5.30;99.90;;;;;;5008294;28;20033;-64
2022/03/18 06:15:05;;;;;;;18.10;6.03;;;5.30;99.90;;;;;;5004151;28;20026;-64
2022/03/18 06:17:30;;;;;;;21.00;6.65;;;5.40;99.90;;;;;;4997876;28;20030;-64
2022/03/18 06:19:56;;;;;;;13.75;5.10;;;5.40;99.90;;;;;;4996770;28;20030;-64
2022/03/18 06:22:21;;;;;;;16.58;5.30;;;5.40;99.90;;;;;;5010184;28;20111;-63
2022/03/18 06:24:47;;;;;;;17.30;7.32;;;5.50;99.90;;;;;;5013148;28;20046;-63
2022/03/18 06:27:12;;;;;;;16.35;5.65;;;5.40;99.90;;;;;;5003551;28;20081;-63
2022/03/18 06:29:42;;;;;;;22.85;7.50;;;5.50;99.90;;;;;;5011182;28;20065;-63
2022/03/18 06:32:09;;;;;;;18.85;6.18;;;5.50;99.90;;;;;;5008177;28;20021;-63
2022/03/18 06:34:34;;;;;;;19.52;5.97;;;5.60;99.90;;;;;;5013391;28;20480;-63
2022/03/18 06:37:00;;;;;;;14.68;5.82;;;5.60;99.90;;;;;;5011803;28;20054;-63
2022/03/18 06:39:26;;;;;;;18.70;5.72;;;5.70;99.90;;;;;;5021817;28;20030;-63
2022/03/18 06:41:52;;;;;;;16.70;6.20;;;5.70;99.90;;;;;;5013574;28;20036;-63
2022/03/18 06:44:18;;;;;;;15.52;5.82;;;5.80;99.90;;;;;;5010108;28;20089;-63
2022/03/18 06:46:44;;;;;;;12.20;5.65;;;5.80;99.90;;;;;;5011472;28;20057;-63
2022/03/18 06:49:10;;;;;;;17.13;6.50;;;5.90;99.90;;;;;;5001823;28;20553;-63
2022/03/18 06:51:36;;;;;;;13.43;5.72;;;5.90;99.90;;;;;;5013502;28;20121;-63
2022/03/18 06:54:02;;;;;;;17.08;6.35;;;6.00;99.90;;;;;;5000879;28;20120;-63
2022/03/18 06:56:27;;;;;;;20.13;6.40;;;6.00;99.90;;;;;;4994133;28;20034;-64
2022/03/18 06:58:53;;;;;;;16.90;6.50;;;6.10;99.90;;;;;;5004544;28;20034;-64
2022/03/18 07:01:21;;;;;;;13.55;6.40;;;6.10;99.90;;;;;;5006247;28;20030;-64
2022/03/18 07:03:47;;;;;;;17.02;6.63;;;6.10;99.90;;;;;;5011466;28;20022;-69
2022/03/18 07:06:13;;;;;;;20.05;6.80;;;6.20;99.90;;;;;;4995525;28;20467;-67
2022/03/18 07:08:41;;;;;;;18.85;6.93;;;6.20;99.90;;;;;;5007101;28;20062;-66
2022/03/18 07:11:07;;;;;;;15.45;6.00;;;6.30;99.90;;;;;;5010969;28;20438;-64
2022/03/18 07:13:33;;;;;;;19.90;6.75;;;6.40;99.90;;;;;;5012119;28;20530;-69
2022/03/18 07:17:55;;;;;;;17.85;6.35;;;6.50;99.90;;;;;;5012931;28;20386;-63
2022/03/18 07:18:45;;;;;;;19.92;5.93;;;6.50;99.90;;;;;;5003136;28;20022;-62
2022/03/18 07:21:12;;;;;;;17.63;6.30;;;6.70;99.90;;;;;;5012366;28;20033;-64
2022/03/18 07:23:37;;;;;;;17.85;6.47;;;6.80;99.90;;;;;;5010414;28;20592;-63
2022/03/18 07:26:03;;;;;;;21.08;6.30;;;6.90;99.90;;;;;;5005213;28;20030;-64
2022/03/18 07:28:28;;;;;;;20.02;7.07;;;7.00;99.90;;;;;;5010904;28;20533;-65
2022/03/18 07:30:54;;;;;;;19.30;6.70;;;7.10;99.90;;;;;;5007378;28;20045;-66
2022/03/18 07:33:19;;;;;;;18.70;6.15;;;7.20;99.90;;;;;;5012408;28;20042;-65
2022/03/18 07:35:45;;;;;;;19.33;7.07;;;7.30;99.90;;;;;;5011499;28;20113;-63
2022/03/18 07:38:10;;;;;;;22.85;6.80;;;7.50;99.90;;;;;;5006985;28;20038;-62
2022/03/18 07:40:37;;;;;;;16.88;5.45;;;7.60;99.90;;;;;;5013347;28;20033;-64
2022/03/18 07:43:03;;;;;;;19.00;6.05;;;7.70;99.90;;;;;;5005641;28;20030;-66
2022/03/18 07:45:30;;;;;;;18.67;6.38;;;7.90;99.90;;;;;;5012673;28;20026;-69
2022/03/18 07:48:04;;;;;;;19.48;5.80;;;8.00;99.90;;;;;;5008617;28;20141;-67
2022/03/18 07:50:32;;;;;;;16.75;6.82;;;8.20;99.90;;;;;;5010730;28;20490;-63
2022/03/18 07:53:03;;;;;;;17.42;6.65;;;8.40;99.90;;;;;;4997576;28;20030;-65
2022/03/18 07:55:31;;;;;;;17.07;5.77;;;8.60;99.90;;;;;;5000507;28;20030;-65
2022/03/18 07:57:58;;;;;;;19.92;6.47;;;8.90;99.90;;;;;;5002327;28;20031;-62
2022/03/18 08:00:24;;;;;;;18.67;6.43;;;9.20;99.90;;;;;;5011239;28;20030;-65
2022/03/18 08:02:52;;;;;;;19.75;5.45;;;9.60;99.90;;;;;;5011990;28;20092;-67
2022/03/18 08:05:19;;;;;;;21.50;6.75;;;10.20;99.90;;;;;;5012634;28;20036;-64
2022/03/18 08:07:45;;;;;;;16.80;5.72;;;10.90;99.90;;;;;;5008666;28;20113;-63
2022/03/18 08:10:11;;;;;;;13.95;5.35;;;11.70;99.90;;;;;;5009372;28;20120;-68
2022/03/18 08:12:41;;;;;;;13.20;4.25;;;12.60;99.90;;;;;;5013322;28;20026;-68
2022/03/18 08:15:09;;;;;;;13.23;4.32;;;13.50;99.90;;;;;;4999250;28;20109;-64
2022/03/18 08:17:40;;;;;;;13.13;4.78;;;14.60;99.90;;;;;;5010101;28;20520;-66
2022/03/18 08:20:12;;;;;;;14.85;4.65;;;15.70;99.90;;;;;;5008594;28;20029;-65
2022/03/18 08:22:38;;;;;;;15.43;5.50;;;16.90;99.90;;;;;;5015744;28;20026;-66
2022/03/18 08:25:05;;;;;;;17.38;4.30;;;17.90;99.90;;;;;;5014897;28;20365;-65
2022/03/18 08:27:32;;;;;;;10.85;4.30;;;18.80;98.60;;;;;;5002875;28;20049;-64
2022/03/18 08:29:59;;;;;;;14.82;4.72;;;19.60;98.20;;;;;;5016321;28;20035;-66
2022/03/18 08:32:26;;;;;;;15.07;4.40;;;20.30;96.20;;;;;;5015141;28;20061;-66
2022/03/18 08:34:53;;;;;;;12.00;4.20;;;20.90;95.70;;;;;;5005306;28;20033;-68
2022/03/18 08:40:04;;;;;;;13.85;4.18;;;21.90;93.20;;;;;;5015789;28;20485;-64
2022/03/18 08:42:31;;;;;;;10.50;3.78;;;22.10;92.20;;;;;;5004497;28;20456;-65
2022/03/18 08:44:56;;;;;;;13.65;4.88;;;22.20;91.70;;;;;;5008219;28;20026;-64
2022/03/18 08:47:23;;;;;;;12.70;4.68;;;22.10;91.50;;;;;;5003269;28;20045;-65
2022/03/18 08:49:49;;;;;;;13.63;4.25;;;22.20;91.40;;;;;;5007791;28;20459;-65
2022/03/18 08:52:15;;;;;;;13.10;4.20;;;22.50;91.00;;;;;;4997993;28;20041;-66
2022/03/18 08:54:40;;;;;;;15.40;4.80;;;22.60;90.50;;;;;;5007154;28;20043;-65
2022/03/18 08:57:06;;;;;;;13.98;5.20;;;22.70;90.70;;;;;;5010221;28;20037;-66
2022/03/18 08:59:34;;;;;;;9.40;4.55;;;23.10;90.40;;;;;;4996039;28;20034;-66
2022/03/18 09:02:00;;;;;;;18.45;4.78;;;23.70;89.90;;;;;;5001302;28;20026;-66
2022/03/18 09:04:26;;;;;;;13.32;4.78;;;24.20;89.30;;;;;;4997391;28;20034;-65
2022/03/18 09:06:51;;;;;;;15.90;5.03;;;24.60;87.00;;;;;;4999864;28;20037;-62
2022/03/18 09:09:17;;;;;;;13.93;4.68;;;24.80;86.00;;;;;;5009772;28;20096;-65
2022/03/18 09:11:43;;;;;;;12.82;4.40;;;25.10;85.10;;;;;;5013831;28;20030;-66
2022/03/18 09:14:10;;;;;;;13.75;3.47;;;25.40;83.70;;;;;;4997459;28;20391;-68
2022/03/18 09:16:38;;;;;;;11.43;3.80;;;25.70;83.30;;;;;;5003060;28;20026;-67
2022/03/18 09:19:04;;;;;;;14.20;4.15;;;25.90;81.90;;;;;;5010917;28;20493;-63
2022/03/18 09:21:30;;;;;;;11.82;3.83;;;26.10;81.30;;;;;;4998946;28;20038;-65
2022/03/18 09:23:56;;;;;;;14.95;3.95;;;26.20;80.20;;;;;;5003023;28;20042;-66
2022/03/18 09:26:22;;;;;;;12.95;3.95;;;26.20;79.70;;;;;;5012762;28;20452;-64
2022/03/18 09:28:47;;;;;;;11.60;3.75;;;26.20;79.60;;;;;;5004151;28;20030;-65
2022/03/18 09:31:13;;;;;;;11.70;3.80;;;26.20;78.70;;;;;;5014964;28;20037;-63
2022/03/18 09:33:42;;;;;;;12.45;3.80;;;26.30;78.90;;;;;;4997319;28;20354;-66
2022/03/18 09:36:08;;;;;;;12.75;4.07;;;26.30;78.20;;;;;;5023256;28;20029;-67
2022/03/18 09:38:34;;;;;;;10.05;3.67;;;26.50;78.50;;;;;;5008274;28;20033;-63
2022/03/18 09:40:59;;;;;;;9.93;3.90;;;26.70;77.90;;;;;;5015109;28;20045;-65
2022/03/18 09:43:30;;;;;;;13.43;4.22;;;26.90;77.50;;;;;;5008914;28;20422;-66
2022/03/18 09:45:57;;;;;;;12.55;3.60;;;27.10;76.80;;;;;;4995666;28;20026;-65
2022/03/18 09:48:24;;;;;;;13.18;4.38;;;27.00;75.90;;;;;;4997045;28;20026;-64
2022/03/18 09:50:50;;;;;;;11.50;3.83;;;26.80;76.40;;;;;;5013200;28;20189;-62
2022/03/18 09:53:17;;;;;;;11.32;3.72;;;26.70;75.80;;;;;;5014968;28;20064;-65
2022/03/18 09:55:42;;;;;;;10.90;3.90;;;26.40;75.90;;;;;;5011279;28;20037;-62
2022/03/18 09:58:08;;;;;;;12.05;4.05;;;26.20;76.30;;;;;;4998127;28;20035;-65
2022/03/18 10:00:34;;;;;;;10.77;4.13;;;26.30;76.80;;;;;;4997968;28;20374;-66
2022/03/18 10:03:11;;;;;;;10.63;3.55;;;26.60;76.30;;;;;;5012608;28;20390;-66
2022/03/18 10:05:47;;;;;;;15.18;3.65;;;26.80;75.20;;;;;;5011430;28;20026;-63
2022/03/18 10:08:13;;;;;;;12.88;3.90;;;26.80;75.10;;;;;;5013375;28;20022;-63
2022/03/18 10:10:49;;;;;;;11.50;3.85;;;26.80;74.90;;;;;;5010234;28;20556;-63
2022/03/18 10:13:16;;;;;;;10.55;3.72;;;26.90;74.60;;;;;;5013748;28;20029;-64
2022/03/18 10:15:44;;;;;;;12.70;4.13;;;27.00;74.50;;;;;;5012123;28;20026;-63
2022/03/18 10:18:12;;;;;;;13.82;4.32;;;27.10;74.50;;;;;;5012935;28;20034;-63
2022/03/18 10:20:40;;;;;;;15.63;4.38;;;27.50;73.50;;;;;;5012895;28;20026;-63
2022/03/18 10:23:15;;;;;;;12.40;4.40;;;27.50;73.40;;;;;;5017269;28;20025;-62
2022/03/18 10:25:50;;;;;;;12.95;4.28;;;27.40;73.80;;;;;;5011755;28;20095;-63
2022/03/18 10:28:37;;;;;;;12.02;4.10;;;27.70;74.10;;;;;;5011499;28;20030;-65
2022/03/18 10:31:20;;;;;;;9.77;4.03;;;28.00;72.30;;;;;;5006774;28;20093;-63
2022/03/18 10:39:31;;;;;;;13.60;3.85;;;28.10;71.90;;;;;;5032083;28;20041;-63
2022/03/18 10:42:00;;;;;;;;;;;28.30;70.70;;;;;;5027980;28;20175;-67
2022/03/18 10:44:31;;;;;;;12.18;3.90;;;28.30;69.90;;;;;;5013510;28;20075;-63
2022/03/18 10:46:57;;;;;;;8.80;3.45;;;28.10;69.70;;;;;;5014153;28;20022;-66
2022/03/18 10:49:27;;;;;;;10.20;4.20;;;27.80;71.00;;;;;;5013912;28;20091;-65
2022/03/18 10:51:52;;;;;;;12.77;4.18;;;27.80;70.60;;;;;;5013661;28;20072;-67
2022/03/18 10:54:25;;;;;;;12.18;4.22;;;27.80;70.20;;;;;;5012748;28;20061;-64
2022/03/18 10:56:56;;;;;;;13.63;3.95;;;27.50;70.40;;;;;;5013721;28;20028;-63
2022/03/18 10:59:26;;;;;;;12.95;3.83;;;27.30;70.10;;;;;;5028330;28;20075;-64
2022/03/18 11:01:52;;;;;;;11.63;4.15;;;27.20;70.50;;;;;;5033778;28;20029;-63
2022/03/18 11:04:18;;;;;;;12.75;4.18;;;27.40;69.70;;;;;;5033751;28;20026;-62
2022/03/18 11:07:29;;;;;;;14.30;4.35;;;27.50;69.40;;;;;;5033123;28;20039;-67
2022/03/18 11:11:06;;;;;;;11.48;4.43;;;27.70;69.80;;;;;;5019246;28;20037;-65
2022/03/18 11:12:23;;;;;;;9.82;4.15;;;27.90;69.10;;;;;;5023957;28;20076;-63
2022/03/18 11:14:54;;;;;;;12.25;3.80;;;28.00;69.30;;;;;;5025411;28;20060;-66
2022/03/18 11:17:21;;;;;;;8.32;3.20;;;28.20;67.80;;;;;;5026027;28;20057;-64
2022/03/18 11:19:47;;;;;;;8.68;3.13;;;27.70;67.40;;;;;;5021508;28;20112;-63
2022/03/18 11:22:16;;;;;;;10.90;4.10;;;27.40;68.20;;;;;;5011433;28;20112;-63
2022/03/18 11:24:45;;;;;;;9.88;3.17;;;27.20;68.00;;;;;;5020902;28;20049;-63
2022/03/18 11:27:12;;;;;;;11.65;3.85;;;27.00;67.50;;;;;;5024279;28;20026;-64
2022/03/18 11:29:38;;;;;;;11.85;4.95;;;26.80;67.60;;;;;;5017662;28;20049;-66
2022/03/18 11:32:09;;;;;;;10.27;3.20;;;26.40;68.40;;;;;;5023834;28;20053;-63
2022/03/18 11:34:47;;;;;;;12.68;3.75;;;26.30;68.20;;;;;;5028516;28;20062;-63
2022/03/18 11:37:13;;;;;;;12.50;4.07;;;26.30;68.50;;;;;;5015136;28;20084;-66
2022/03/18 11:39:39;;;;;;;12.02;3.88;;;26.50;67.90;;;;;;5016348;28;20030;-64
2022/03/18 11:42:09;;;;;;;10.00;3.55;;;26.60;67.90;;;;;;5013161;28;20026;-65
2022/03/18 11:44:44;;;;;;;11.77;3.80;;;27.00;67.80;;;;;;5013719;28;20026;-65
2022/03/18 11:47:36;;;;;;;13.30;4.75;;;27.30;68.20;;;;;;5013232;28;20442;-65
2022/03/18 11:50:21;;;;;;;11.80;3.83;;;27.70;67.10;;;;;;5015490;28;20062;-64
2022/03/18 11:52:57;;;;;;;9.27;3.63;;;27.80;66.40;;;;;;5015369;28;20362;-67
2022/03/18 11:55:23;;;;;;;13.48;4.05;;;27.90;66.80;;;;;;5015682;28;20033;-66
2022/03/18 11:57:48;;;;;;;9.50;3.55;;;28.10;65.70;;;;;;5016034;28;20348;-66
2022/03/18 12:00:32;;;;;;;11.23;3.13;;;28.20;64.30;;;;;;5017058;28;20084;-63
2022/03/18 12:03:02;;;;;;;11.65;3.63;;;27.90;64.80;;;;;;5017219;28;20038;-67
2022/03/18 12:05:31;;;;;;;14.18;4.05;;;27.70;64.10;;;;;;5016974;28;20072;-63
2022/03/18 12:07:59;;;;;;;10.57;3.58;;;27.50;65.50;;;;;;5017178;28;20025;-62
2022/03/18 12:10:36;;;;;;;11.07;3.80;;;27.40;64.90;;;;;;5026923;28;20045;-62
2022/03/18 12:13:03;;;;;;;10.90;4.13;;;27.40;64.60;;;;;;5028040;28;20050;-63
2022/03/18 12:15:30;;;;;;;9.93;3.85;;;27.10;65.50;;;;;;5022913;28;20097;-65
2022/03/18 12:17:59;;;;;;;10.30;3.80;;;27.00;65.20;;;;;;5017254;28;20462;-62
2022/03/18 12:20:26;;;;;;;12.82;4.03;;;27.10;65.30;;;;;;5027756;28;20038;-68
2022/03/18 12:22:53;;;;;;;11.00;3.90;;;27.20;65.10;;;;;;5020166;28;20030;-66
2022/03/18 12:25:22;;;;;;;11.57;3.97;;;27.30;64.60;;;;;;5026787;28;20096;-64
2022/03/18 12:27:50;;;;;;;13.43;4.03;;;27.50;65.00;;;;;;5020111;28;20022;-63
2022/03/18 12:30:17;;;;;;;11.07;4.00;;;27.70;64.60;;;;;;5035386;28;20064;-63
2022/03/18 12:32:53;;;;;;;10.93;3.67;;;27.60;64.40;;;;;;5022699;28;20105;-63
2022/03/18 12:35:28;;;;;;;11.75;3.50;;;27.50;64.50;;;;;;5027265;28;20139;-63
2022/03/18 12:38:17;;;;;;;10.55;3.70;;;27.50;64.10;;;;;;5028487;28;20488;-63
2022/03/18 12:40:55;;;;;;;11.10;4.05;;;27.40;64.60;;;;;;5021816;28;20033;-65
2022/03/18 12:43:21;;;;;;;14.13;4.40;;;27.40;65.10;;;;;;5027039;28;20053;-63
2022/03/18 12:45:47;;;;;;;15.75;4.30;;;27.60;63.70;;;;;;5029129;28;20390;-67
2022/03/18 12:48:15;;;;;;;13.30;4.40;;;27.50;64.10;;;;;;5028961;28;20038;-65
2022/03/18 12:50:43;;;;;;;11.73;4.07;;;27.40;63.90;;;;;;5018392;28;20132;-65
2022/03/18 12:53:11;;;;;;;13.23;3.80;;;27.50;63.60;;;;;;5018950;28;20058;-67
2022/03/18 12:55:36;;;;;;;11.80;4.47;;;27.40;63.90;;;;;;5020509;28;20039;-66
2022/03/18 12:58:04;;;;;;;11.20;3.58;;;27.30;63.30;;;;;;5034788;28;20526;-63
2022/03/18 13:00:39;;;;;;;11.13;3.13;;;27.00;64.00;;;;;;5019910;28;20030;-66
2022/03/18 13:03:09;;;;;;;9.30;3.30;;;26.90;63.80;;;;;;5018173;28;20121;-64
2022/03/18 13:05:35;;;;;;;11.60;3.20;;;26.60;63.00;;;;;;5032655;28;20026;-62